createdAt,value
2019-05-25T00:04:31.196Z,100653.21
2019-05-25T00:09:35.378Z,100653.14
2019-05-25T00:14:39.574Z,100660.37
2019-05-25T00:19:43.986Z,100656.63
2019-05-25T00:24:48.202Z,100657.39
2019-05-25T00:29:52.431Z,100668.23
2019-05-25T00:34:56.627Z,100668.82
2019-05-25T00:40:00.838Z,100672.25
2019-05-25T00:45:06.069Z,100676.57
2019-05-25T00:50:10.787Z,100688.33
2019-05-25T00:55:15.183Z,100681.84
2019-05-25T01:00:19.477Z,100677.78
2019-05-25T01:05:23.749Z,100681.19
2019-05-25T01:10:27.947Z,100690.78
2019-05-25T01:15:32.152Z,100691.51
2019-05-25T01:20:36.344Z,100698.36
2019-05-25T01:25:40.551Z,100690.34
2019-05-25T01:30:44.750Z,100689.14
2019-05-25T01:35:48.953Z,100692.67
2019-05-25T01:40:53.162Z,100692.28
2019-05-25T01:45:57.389Z,100694.65
2019-05-25T01:51:01.598Z,100699.72
2019-05-25T01:56:05.807Z,100703.78
2019-05-25T02:01:09.998Z,100704.45
2019-05-25T02:06:14.214Z,100711.31
2019-05-25T02:11:20.014Z,100717.97
2019-05-25T02:16:24.216Z,100713.36
2019-05-25T02:21:28.406Z,100721.43
2019-05-25T02:26:32.611Z,100725.28
2019-05-25T02:31:36.845Z,100730.39
2019-05-25T02:36:41.042Z,100733.16
2019-05-25T02:41:45.285Z,100727.95
2019-05-25T02:46:49.466Z,100725.73
2019-05-25T02:51:53.666Z,100735.85
2019-05-25T02:56:57.854Z,100729.94
2019-05-25T03:02:02.053Z,100737.77
2019-05-25T03:07:06.366Z,100737.34
2019-05-25T03:12:10.649Z,100743.88
2019-05-25T03:17:14.844Z,100747.04
2019-05-25T03:22:19.047Z,100745.19
2019-05-25T03:27:23.234Z,100748.52
2019-05-25T03:32:27.446Z,100747.68
2019-05-25T03:37:31.637Z,100763.16
2019-05-25T03:42:35.985Z,100758.44
2019-05-25T03:47:40.225Z,100769.56
2019-05-25T03:52:44.421Z,100766.77
2019-05-25T03:57:48.611Z,100773.21
2019-05-25T04:02:52.841Z,100772.63
2019-05-25T04:07:57.037Z,100771.80
2019-05-25T04:13:01.254Z,100769.13
2019-05-25T04:18:05.526Z,100772.05
2019-05-25T04:23:09.715Z,100772.61
2019-05-25T04:28:13.909Z,100772.59
2019-05-25T04:33:18.108Z,100773.84
2019-05-25T04:38:22.332Z,100781.14
2019-05-25T04:43:26.580Z,100795.82
2019-05-25T04:48:30.759Z,100800.30
2019-05-25T04:53:34.955Z,100798.68
2019-05-25T04:58:39.136Z,100800.31
2019-05-25T05:03:43.324Z,100803.25
2019-05-25T05:08:47.528Z,100809.77
2019-05-25T05:13:51.733Z,100811.23
2019-05-25T05:18:55.913Z,100815.72
2019-05-25T05:24:00.106Z,100812.11
2019-05-25T05:29:05.510Z,100828.93
2019-05-25T05:34:09.817Z,100822.23
2019-05-25T05:39:14.520Z,100832.55
2019-05-25T05:44:22.151Z,100829.33
2019-05-25T05:49:27.715Z,100824.84
2019-05-25T05:54:32.965Z,100828.59
2019-05-25T05:59:37.155Z,100831.23
2019-05-25T06:04:41.370Z,100836.08
2019-05-25T06:09:45.559Z,100843.73
2019-05-25T06:14:49.774Z,100846.56
2019-05-25T06:19:53.966Z,100848.23
2019-05-25T06:24:58.156Z,100859.38
2019-05-25T06:30:02.362Z,100860.05
2019-05-25T06:35:07.261Z,100869.44
2019-05-25T06:40:11.682Z,100864.72
2019-05-25T06:45:16.012Z,100876.66
2019-05-25T06:50:20.241Z,100890.88
2019-05-25T06:55:24.431Z,100891.84
2019-05-25T07:00:28.643Z,100887.04
2019-05-25T07:05:32.831Z,100905.02
2019-05-25T07:10:37.025Z,100906.42
2019-05-25T07:15:41.211Z,100910.59
2019-05-25T07:20:45.394Z,100910.88
2019-05-25T07:25:49.595Z,100904.45
2019-05-25T07:30:53.982Z,100911.60
2019-05-25T07:35:58.182Z,100907.52
2019-05-25T07:41:02.466Z,100913.80
2019-05-25T07:46:06.888Z,100915.41
2019-05-25T07:51:11.109Z,100922.77
2019-05-25T07:56:15.331Z,100930.80
2019-05-25T08:01:19.532Z,100926.75
2019-05-25T08:06:23.902Z,100930.38
2019-05-25T08:11:28.127Z,100931.20
2019-05-25T08:16:32.350Z,100937.48
2019-05-25T08:21:36.554Z,100943.97
2019-05-25T08:26:40.753Z,100941.06
2019-05-25T08:31:44.950Z,100939.98
2019-05-25T08:36:49.142Z,100941.65
2019-05-25T08:41:53.409Z,100947.10
2019-05-25T08:46:57.625Z,100951.73
2019-05-25T08:52:04.195Z,100955.87
2019-05-25T08:57:07.795Z,100963.98
2019-05-25T09:02:12.012Z,100948.59
2019-05-25T09:07:16.217Z,100958.37
2019-05-25T09:12:20.463Z,100967.28
2019-05-25T09:17:24.670Z,100966.63
2019-05-25T09:22:28.898Z,100964.00
2019-05-25T09:27:33.087Z,100970.58
2019-05-25T09:32:37.390Z,100972.05
2019-05-25T09:37:41.613Z,100977.57
2019-05-25T09:42:45.949Z,100981.63
2019-05-25T09:47:50.253Z,100986.12
2019-05-25T09:52:54.468Z,100985.23
2019-05-25T09:57:58.669Z,100983.00
2019-05-25T10:03:02.991Z,100981.94
2019-05-25T10:08:07.304Z,100976.83
2019-05-25T10:13:11.500Z,100980.45
2019-05-25T10:18:15.804Z,100971.97
2019-05-25T10:23:20.014Z,100967.39
2019-05-25T10:28:24.204Z,100969.06
2019-05-25T10:33:28.472Z,100967.50
2019-05-25T10:38:32.665Z,100965.58
2019-05-25T10:43:36.882Z,100964.67
2019-05-25T10:48:41.142Z,100972.33
2019-05-25T10:53:45.369Z,100974.58
2019-05-25T10:58:49.578Z,100964.06
2019-05-25T11:03:53.795Z,100966.33
2019-05-25T11:08:58.015Z,100958.00
2019-05-25T11:14:02.259Z,100964.48
2019-05-25T11:19:06.538Z,100963.38
2019-05-25T11:24:10.704Z,100962.48
2019-05-25T11:29:14.927Z,100957.67
2019-05-25T11:34:19.152Z,100958.30
2019-05-25T11:39:23.346Z,100948.34
2019-05-25T11:44:27.559Z,100944.05
2019-05-25T11:49:31.813Z,100955.47
2019-05-25T11:54:35.980Z,100955.97
2019-05-25T11:59:40.173Z,100960.30
2019-05-25T12:04:44.384Z,100955.50
2019-05-25T12:09:48.630Z,100958.38
2019-05-25T12:14:52.847Z,100956.25
2019-05-25T12:19:57.081Z,100957.42
2019-05-25T12:25:01.300Z,100955.10
2019-05-25T12:30:06.831Z,100953.86
2019-05-25T12:35:11.427Z,100948.09
2019-05-25T12:40:15.858Z,100950.87
2019-05-25T12:45:20.306Z,100948.71
2019-05-25T12:50:24.645Z,100947.19
2019-05-25T12:55:28.832Z,100953.58
2019-05-25T13:00:33.054Z,100954.45
2019-05-25T13:05:37.267Z,100949.46
2019-05-25T13:10:41.478Z,100955.13
2019-05-25T13:15:45.727Z,100939.04
2019-05-25T13:20:49.929Z,100936.78
2019-05-25T13:25:54.162Z,100944.78
2019-05-25T13:31:10.760Z,100939.50
2019-05-25T13:36:04.297Z,100945.03
2019-05-25T13:41:08.499Z,100940.75
2019-05-25T13:46:12.730Z,100938.28
2019-05-25T13:51:16.933Z,100931.55
2019-05-25T13:56:21.170Z,100939.80
2019-05-25T14:01:28.239Z,100943.56
2019-05-25T14:06:31.293Z,100950.97
2019-05-25T14:11:35.490Z,100952.22
2019-05-25T14:16:39.724Z,100961.00
2019-05-25T14:21:43.938Z,100956.85
2019-05-25T14:26:48.160Z,100951.92
2019-05-25T14:31:52.372Z,100957.79
2019-05-25T14:36:56.584Z,100953.66
2019-05-25T14:42:00.800Z,100945.61
2019-05-25T14:47:05.184Z,100960.78
2019-05-25T14:52:09.379Z,100954.55
2019-05-25T14:57:13.587Z,100947.97
2019-05-25T15:02:17.787Z,100947.48
2019-05-25T15:07:21.998Z,100955.47
2019-05-25T15:12:26.228Z,100951.48
2019-05-25T15:17:30.453Z,100949.52
2019-05-25T15:22:34.670Z,100953.25
2019-05-25T15:27:38.931Z,100949.69
2019-05-25T15:32:43.132Z,100944.77
2019-05-25T15:37:47.375Z,100939.56
2019-05-25T15:42:51.582Z,100928.89
2019-05-25T15:47:55.832Z,100926.14
2019-05-25T15:53:00.032Z,100937.41
2019-05-25T15:58:04.428Z,100934.25
2019-05-25T16:03:08.749Z,100936.72
2019-05-25T16:08:12.950Z,100939.23
2019-05-25T16:13:17.375Z,100937.55
2019-05-25T16:18:21.583Z,100948.66
2019-05-25T16:23:25.812Z,100944.75
2019-05-25T16:28:30.043Z,100953.50
2019-05-25T16:33:34.229Z,100945.73
2019-05-25T16:38:38.499Z,100947.67
2019-05-25T16:43:42.795Z,100947.30
2019-05-25T16:48:46.991Z,100954.17
2019-05-25T16:53:51.246Z,100948.09
2019-05-25T16:58:55.448Z,100946.04
2019-05-25T17:03:59.639Z,100953.64
2019-05-25T17:09:04.836Z,100955.30
2019-05-25T17:14:09.127Z,100950.09
2019-05-25T17:19:13.348Z,100946.41
2019-05-25T17:24:17.583Z,100940.22
2019-05-25T17:29:21.808Z,100943.20
2019-05-25T17:34:26.018Z,100939.08
2019-05-25T17:39:30.230Z,100935.69
2019-05-25T17:44:34.427Z,100941.82
2019-05-25T17:49:38.637Z,100938.73
2019-05-25T17:54:42.849Z,100947.11
2019-05-25T17:59:47.042Z,100943.31
2019-05-25T18:04:51.252Z,100941.38
2019-05-25T18:09:55.468Z,100946.06
2019-05-25T18:14:59.678Z,100935.77
2019-05-25T18:20:04.676Z,100943.42
2019-05-25T18:25:08.935Z,100939.13
2019-05-25T18:30:13.668Z,100936.73
2019-05-25T18:35:17.907Z,100945.66
2019-05-25T18:40:22.460Z,100939.77
2019-05-25T18:45:26.705Z,100930.44
2019-05-25T18:50:30.963Z,100937.33
2019-05-25T18:55:35.288Z,100940.72
2019-05-25T19:00:39.514Z,100948.89
2019-05-25T19:05:43.744Z,100952.88
2019-05-25T19:10:47.940Z,100958.95
2019-05-25T19:15:52.953Z,100960.11
2019-05-25T19:20:57.165Z,100963.91
2019-05-25T19:26:01.455Z,100965.47
2019-05-25T19:31:05.842Z,100964.59
2019-05-25T19:36:10.061Z,100959.11
2019-05-25T19:41:14.266Z,100964.12
2019-05-25T19:46:18.488Z,100969.51
2019-05-25T19:51:22.722Z,100970.27
2019-05-25T19:56:26.918Z,100972.14
2019-05-25T20:01:31.149Z,100963.94
2019-05-25T20:06:35.356Z,100977.74
2019-05-25T20:11:39.589Z,100974.02
2019-05-25T20:16:43.783Z,100976.02
2019-05-25T20:21:48.014Z,100974.41
2019-05-25T20:26:52.274Z,100974.65
2019-05-25T20:31:56.494Z,100981.22
2019-05-25T20:37:00.726Z,100986.13
2019-05-25T20:42:05.026Z,100988.07
2019-05-25T20:47:09.234Z,100987.88
2019-05-25T20:52:13.460Z,100993.05
2019-05-25T20:57:17.678Z,100990.63
2019-05-25T21:02:21.901Z,101000.08
2019-05-25T21:07:26.122Z,100995.20
2019-05-25T21:12:30.385Z,100996.28
2019-05-25T21:17:34.547Z,100994.56
2019-05-25T21:22:38.731Z,100995.45
2019-05-25T21:27:42.971Z,100989.80
2019-05-25T21:32:47.203Z,100989.47
2019-05-25T21:37:51.435Z,100994.77
2019-05-25T21:42:55.657Z,100991.05
2019-05-25T21:47:59.927Z,100990.98
2019-05-25T21:53:04.268Z,100989.42
2019-05-25T21:58:08.474Z,100977.55
2019-05-25T22:03:12.829Z,100983.84
2019-05-25T22:08:17.049Z,100986.09
2019-05-25T22:13:28.352Z,100974.66
2019-05-25T22:18:27.216Z,100976.23
2019-05-25T22:23:31.458Z,100974.20
2019-05-25T22:28:44.297Z,100975.31
2019-05-25T22:33:41.572Z,100977.69
2019-05-25T22:38:45.781Z,100965.81
2019-05-25T22:43:49.990Z,100963.94
2019-05-25T22:48:54.207Z,100958.80
2019-05-25T22:53:58.369Z,100949.05
2019-05-25T22:59:02.625Z,100955.69
2019-05-25T23:04:06.838Z,100955.73
2019-05-25T23:09:11.029Z,100949.40
2019-05-25T23:14:15.228Z,100957.50
2019-05-25T23:19:19.485Z,100954.19
2019-05-25T23:24:23.662Z,100958.45
2019-05-25T23:29:27.855Z,100958.61
2019-05-25T23:34:32.043Z,100959.87
2019-05-25T23:39:36.265Z,100955.12
2019-05-25T23:44:40.470Z,100959.26
2019-05-25T23:49:44.667Z,100963.82
2019-05-25T23:54:48.863Z,100973.64
2019-05-25T23:59:53.067Z,100963.17
